Capt. James Anderson — WDC3584 — position and weather

sailwx.info

Track history (hours):
 
Tides and Currents Weather Stations Pressure Air Temp Water Temp Dewpoint Dewpoint Depression Visibility Wind Speed Wind Dir Waves Ship Positions

Capt. James Anderson

Owner: AEP River Operations LLC, Chesterfield, MO. More information available from US FCC via Universal Licensing System and Coast Guard Vessel Documentation Center.

Last reported at 2015-Apr-05 07:18 UTC. Time now 2015-May-05 16:18 UTC.
Position N 38°52' W 081°54'.
Warning: this ship's position is 30 days out of date.

Length 46 m; draft 3.5 m.

Type: Towing. MMSI: 367010580.

Date/timePositionNaut miles runAvg speedWind from/ knotsBaromVisibWave heightAir tempDewpointWater temp
2015-Apr-05 07:18N 38°52' W 081°54'6 2.2
2015-Apr-05 04:20N 38°59' W 081°56'2 2.1
2015-Apr-05 03:27N 38°60' W 081°58'3 3.0
2015-Apr-05 02:28N 39°02' W 082°01'3 2.8
2015-Apr-05 01:31N 38°60' W 082°03'5 5.1
2015-Apr-05 00:29N 38°56' W 082°07'0 0.0
2015-Apr-04 23:31N 38°56' W 082°07'0 0.0
2015-Apr-04 22:29N 38°56' W 082°07'0 0.0
2015-Apr-04 21:25N 38°56' W 082°07'0 0.0
2015-Apr-04 20:32N 38°56' W 082°07'0 0.0
2015-Apr-04 19:28N 38°56' W 082°07'0 0.0
2015-Apr-04 18:29N 38°56' W 082°07'0 0.0
2015-Apr-04 17:30N 38°56' W 082°07'0 0.2
2015-Apr-04 16:31N 38°56' W 082°07'1 1.4
2015-Apr-04 15:31N 38°57' W 082°06'0 0.0
2015-Apr-04 14:31N 38°57' W 082°06'1 1.2
2015-Apr-04 13:32N 38°56' W 082°07'0 0.0
2015-Apr-04 12:31N 38°56' W 082°07'7 7.2
2015-Apr-04 11:31N 39°02' W 082°01'7 7.2
2015-Apr-04 10:31N 38°56' W 082°07'7 7.3
2015-Apr-04 09:32N 39°02' W 082°01'5 4.8
2015-Apr-04 08:30N 38°59' W 081°56'0 0.0
2015-Apr-04 07:29N 38°59' W 081°56'0 0.3
2015-Apr-04 06:28N 38°59' W 081°56'0 0.3
2015-Apr-04 05:23N 38°59' W 081°56'0 0.3
2015-Apr-04 04:23N 38°59' W 081°56'  
2015-Mar-31 14:25N 38°52' W 081°54'11 4.8
2015-Mar-31 12:12N 38°57' W 082°06'0 0.0
2015-Mar-31 11:28N 38°57' W 082°06'0 0.0
2015-Mar-31 10:29N 38°57' W 082°06'0 0.0
2015-Mar-31 09:30N 38°57' W 082°06'0 0.0
2015-Mar-31 08:32N 38°57' W 082°06'0 0.0
2015-Mar-31 07:31N 38°57' W 082°06'0 0.0
2015-Mar-31 06:28N 38°57' W 082°06'0 0.0
2015-Mar-31 05:29N 38°57' W 082°06'0 0.0
2015-Mar-31 04:30N 38°57' W 082°06'0 0.0
2015-Mar-31 03:30N 38°57' W 082°06'0 0.3
2015-Mar-31 02:30N 38°57' W 082°06'0 0.0
2015-Mar-31 01:27N 38°57' W 082°06'0 0.0
2015-Mar-31 00:25N 38°57' W 082°06'0 0.0
2015-Mar-30 23:15N 38°57' W 082°06'0 0.0
2015-Mar-30 22:13N 38°57' W 082°06'0 0.1
2015-Mar-30 21:26N 38°57' W 082°06'0 0.1
2015-Mar-30 20:29N 38°57' W 082°06'0 0.0
2015-Mar-30 19:33N 38°57' W 082°06'2 1.5
2015-Mar-30 18:32N 38°58' W 082°05'5 5.0
2015-Mar-30 17:29N 39°01' W 081°60'2 2.1
2015-Mar-30 16:30N 38°60' W 081°58'  
2015-Mar-27 20:17N 38°56' W 082°07'0 0.0
2015-Mar-27 19:33N 38°56' W 082°07'0 0.0
2015-Mar-27 16:16N 38°56' W 082°07'5 5.9
2015-Mar-27 15:29N 38°59' W 082°04'5 4.6
2015-Mar-27 14:30N 38°56' W 082°07'0 0.0
2015-Mar-27 13:26N 38°56' W 082°07'0 0.0
2015-Mar-27 12:33N 38°56' W 082°07'0 0.0
2015-Mar-27 11:30N 38°56' W 082°07'0 0.0
2015-Mar-27 10:30N 38°56' W 082°07'0 0.0
2015-Mar-27 09:33N 38°56' W 082°07'0 0.0
2015-Mar-27 08:30N 38°56' W 082°07'1 0.6
2015-Mar-27 07:31N 38°56' W 082°07'0 0.0
2015-Mar-27 06:32N 38°56' W 082°07'0 0.0
2015-Mar-27 05:32N 38°56' W 082°07'0 0.0
2015-Mar-27 04:29N 38°56' W 082°07'0 0.0
2015-Mar-27 03:31N 38°56' W 082°07'0 0.0
2015-Mar-27 02:32N 38°56' W 082°07'0 0.0
2015-Mar-27 01:26N 38°56' W 082°07'0 0.0
2015-Mar-27 00:28N 38°56' W 082°07'0 0.0
2015-Mar-26 23:27N 38°56' W 082°07'0 0.0
2015-Mar-26 22:28N 38°56' W 082°07'0 0.0
2015-Mar-26 21:32N 38°56' W 082°07'0 0.0
2015-Mar-26 20:28N 38°56' W 082°07'0 0.0
2015-Mar-26 19:28N 38°56' W 082°07'0 0.0
2015-Mar-26 18:33N 38°56' W 082°07'1 0.9
2015-Mar-26 17:32N 38°57' W 082°06'0 0.2
2015-Mar-26 16:32N 38°57' W 082°06'5 5.0
2015-Mar-26 15:29N 38°52' W 082°08'2 1.8
2015-Mar-26 14:30N 38°50' W 082°08'4 4.4
2015-Mar-26 13:30N 38°55' W 082°08'3 2.6
2015-Mar-26 12:31N 38°57' W 082°06'6 5.9
2015-Mar-26 11:33N 39°01' W 082°02'5 4.6
2015-Mar-26 10:33N 38°60' W 081°57'7 3.0
2015-Mar-26 08:05N 38°52' W 081°54'  
Track history (hours):
 
Tides and Currents Weather Stations Pressure Air Temp Water Temp Dewpoint Dewpoint Depression Visibility Wind Speed Wind Dir Waves Ship Positions

Capt. James Anderson

Owner: AEP River Operations LLC, Chesterfield, MO. More information available from US FCC via Universal Licensing System and Coast Guard Vessel Documentation Center.

Last reported at 2015-Apr-05 07:18 UTC. Time now 2015-May-05 16:18 UTC.
Position N 38°52' W 081°54'.
Warning: this ship's position is 30 days out of date.

Length 46 m; draft 3.5 m.

Type: Towing. MMSI: 367010580.

Date/timePositionNaut miles runAvg speedWind from/ knotsBaromVisibWave heightAir tempDewpointWater temp
2015-Apr-05 07:18N 38°52' W 081°54'6 2.2
2015-Apr-05 04:20N 38°59' W 081°56'2 2.1
2015-Apr-05 03:27N 38°60' W 081°58'3 3.0
2015-Apr-05 02:28N 39°02' W 082°01'3 2.8
2015-Apr-05 01:31N 38°60' W 082°03'5 5.1
2015-Apr-05 00:29N 38°56' W 082°07'0 0.0
2015-Apr-04 23:31N 38°56' W 082°07'0 0.0
2015-Apr-04 22:29N 38°56' W 082°07'0 0.0
2015-Apr-04 21:25N 38°56' W 082°07'0 0.0
2015-Apr-04 20:32N 38°56' W 082°07'0 0.0
2015-Apr-04 19:28N 38°56' W 082°07'0 0.0
2015-Apr-04 18:29N 38°56' W 082°07'0 0.0
2015-Apr-04 17:30N 38°56' W 082°07'0 0.2
2015-Apr-04 16:31N 38°56' W 082°07'1 1.4
2015-Apr-04 15:31N 38°57' W 082°06'0 0.0
2015-Apr-04 14:31N 38°57' W 082°06'1 1.2
2015-Apr-04 13:32N 38°56' W 082°07'0 0.0
2015-Apr-04 12:31N 38°56' W 082°07'7 7.2
2015-Apr-04 11:31N 39°02' W 082°01'7 7.2
2015-Apr-04 10:31N 38°56' W 082°07'7 7.3
2015-Apr-04 09:32N 39°02' W 082°01'5 4.8
2015-Apr-04 08:30N 38°59' W 081°56'0 0.0
2015-Apr-04 07:29N 38°59' W 081°56'0 0.3
2015-Apr-04 06:28N 38°59' W 081°56'0 0.3
2015-Apr-04 05:23N 38°59' W 081°56'0 0.3
2015-Apr-04 04:23N 38°59' W 081°56'  
2015-Mar-31 14:25N 38°52' W 081°54'11 4.8
2015-Mar-31 12:12N 38°57' W 082°06'0 0.0
2015-Mar-31 11:28N 38°57' W 082°06'0 0.0
2015-Mar-31 10:29N 38°57' W 082°06'0 0.0
2015-Mar-31 09:30N 38°57' W 082°06'0 0.0
2015-Mar-31 08:32N 38°57' W 082°06'0 0.0
2015-Mar-31 07:31N 38°57' W 082°06'0 0.0
2015-Mar-31 06:28N 38°57' W 082°06'0 0.0
2015-Mar-31 05:29N 38°57' W 082°06'0 0.0
2015-Mar-31 04:30N 38°57' W 082°06'0 0.0
2015-Mar-31 03:30N 38°57' W 082°06'0 0.3
2015-Mar-31 02:30N 38°57' W 082°06'0 0.0
2015-Mar-31 01:27N 38°57' W 082°06'0 0.0
2015-Mar-31 00:25N 38°57' W 082°06'0 0.0
2015-Mar-30 23:15N 38°57' W 082°06'0 0.0
2015-Mar-30 22:13N 38°57' W 082°06'0 0.1
2015-Mar-30 21:26N 38°57' W 082°06'0 0.1
2015-Mar-30 20:29N 38°57' W 082°06'0 0.0
2015-Mar-30 19:33N 38°57' W 082°06'2 1.5
2015-Mar-30 18:32N 38°58' W 082°05'5 5.0
2015-Mar-30 17:29N 39°01' W 081°60'2 2.1
2015-Mar-30 16:30N 38°60' W 081°58'  
2015-Mar-27 20:17N 38°56' W 082°07'0 0.0
2015-Mar-27 19:33N 38°56' W 082°07'0 0.0
2015-Mar-27 16:16N 38°56' W 082°07'5 5.9
2015-Mar-27 15:29N 38°59' W 082°04'5 4.6
2015-Mar-27 14:30N 38°56' W 082°07'0 0.0
2015-Mar-27 13:26N 38°56' W 082°07'0 0.0
2015-Mar-27 12:33N 38°56' W 082°07'0 0.0
2015-Mar-27 11:30N 38°56' W 082°07'0 0.0
2015-Mar-27 10:30N 38°56' W 082°07'0 0.0
2015-Mar-27 09:33N 38°56' W 082°07'0 0.0
2015-Mar-27 08:30N 38°56' W 082°07'1 0.6
2015-Mar-27 07:31N 38°56' W 082°07'0 0.0
2015-Mar-27 06:32N 38°56' W 082°07'0 0.0
2015-Mar-27 05:32N 38°56' W 082°07'0 0.0
2015-Mar-27 04:29N 38°56' W 082°07'0 0.0
2015-Mar-27 03:31N 38°56' W 082°07'0 0.0
2015-Mar-27 02:32N 38°56' W 082°07'0 0.0
2015-Mar-27 01:26N 38°56' W 082°07'0 0.0
2015-Mar-27 00:28N 38°56' W 082°07'0 0.0
2015-Mar-26 23:27N 38°56' W 082°07'0 0.0
2015-Mar-26 22:28N 38°56' W 082°07'0 0.0
2015-Mar-26 21:32N 38°56' W 082°07'0 0.0
2015-Mar-26 20:28N 38°56' W 082°07'0 0.0
2015-Mar-26 19:28N 38°56' W 082°07'0 0.0
2015-Mar-26 18:33N 38°56' W 082°07'1 0.9
2015-Mar-26 17:32N 38°57' W 082°06'0 0.2
2015-Mar-26 16:32N 38°57' W 082°06'5 5.0
2015-Mar-26 15:29N 38°52' W 082°08'2 1.8
2015-Mar-26 14:30N 38°50' W 082°08'4 4.4
2015-Mar-26 13:30N 38°55' W 082°08'3 2.6
2015-Mar-26 12:31N 38°57' W 082°06'6 5.9
2015-Mar-26 11:33N 39°01' W 082°02'5 4.6
2015-Mar-26 10:33N 38°60' W 081°57'7 3.0
2015-Mar-26 08:05N 38°52' W 081°54'  

Dump ship's entire track history